createdAt,value
2022-10-30T00:05:55.583Z,100808.06
2022-10-30T00:12:43.631Z,100798.13
2022-10-30T00:19:29.294Z,100788.03
2022-10-30T00:26:14.692Z,100774.72
2022-10-30T00:33:02.723Z,100790.38
2022-10-30T00:39:48.109Z,100782.50
2022-10-30T00:46:40.032Z,100774.31
2022-10-30T00:53:28.577Z,100772.56
2022-10-30T01:00:16.584Z,100779.59
2022-10-30T01:07:03.596Z,100767.34
2022-10-30T01:13:54.329Z,100757.25
2022-10-30T01:21:15.927Z,100762.38
2022-10-30T01:28:15.861Z,100741.16
2022-10-30T01:35:11.188Z,100754.16
2022-10-30T01:41:59.030Z,100757.50
2022-10-30T01:49:26.152Z,100741.84
2022-10-30T01:56:25.910Z,100758.53
2022-10-30T02:03:18.212Z,100748.34
2022-10-30T02:10:04.010Z,100756.47
2022-10-30T02:16:57.156Z,100752.66
2022-10-30T02:23:47.279Z,100768.63
2022-10-30T02:30:33.111Z,100772.91
2022-10-30T02:37:20.359Z,100782.53
2022-10-30T02:44:09.282Z,100776.59
2022-10-30T02:50:54.707Z,100770.44
2022-10-30T02:57:40.706Z,100775.28
2022-10-30T03:04:28.795Z,100777.63
2022-10-30T03:11:17.314Z,100783.50
2022-10-30T03:18:02.668Z,100757.59
2022-10-30T03:24:50.645Z,100768.69
2022-10-30T03:31:37.237Z,100779.44
2022-10-30T03:38:38.484Z,100783.72
2022-10-30T04:06:09.450Z,100780.44
2022-10-30T04:12:56.135Z,100776.03
2022-10-30T04:19:42.191Z,100775.66
2022-10-30T04:26:31.997Z,100768.09
2022-10-30T04:33:17.996Z,100778.09
2022-10-30T04:40:03.402Z,100774.25
2022-10-30T04:46:59.509Z,100759.91
2022-10-30T04:53:45.065Z,100765.34
2022-10-30T05:00:34.383Z,100764.53
2022-10-30T05:07:31.742Z,100760.97
2022-10-30T05:14:17.277Z,100777.28
2022-10-30T05:21:05.332Z,100767.06
2022-10-30T05:27:53.417Z,100712.91
2022-10-30T05:34:39.024Z,100748.75
2022-10-30T05:41:24.583Z,100743.53
2022-10-30T05:48:12.870Z,100732.03
2022-10-30T05:55:03.621Z,100745.31
2022-10-30T06:02:00.340Z,100767.28
2022-10-30T06:08:49.705Z,100762.66
2022-10-30T06:15:53.700Z,100760.75
2022-10-30T06:22:39.555Z,100769.56
2022-10-30T06:29:35.764Z,100765.50
2022-10-30T06:36:21.144Z,100788.06
2022-10-30T06:43:06.735Z,100797.66
2022-10-30T06:49:58.573Z,100785.97
2022-10-30T06:56:44.403Z,100784.00
2022-10-30T07:03:29.764Z,100788.25
2022-10-30T07:10:17.888Z,100784.50
2022-10-30T07:17:21.802Z,100786.28
2022-10-30T07:24:13.487Z,100809.41
2022-10-30T07:31:11.312Z,100799.00
2022-10-30T07:38:17.743Z,100817.00
2022-10-30T07:45:13.343Z,100812.50
2022-10-30T07:52:27.089Z,100807.31
2022-10-30T07:59:12.600Z,100827.44
2022-10-30T08:06:18.975Z,100817.19
2022-10-30T08:13:13.439Z,100821.06
2022-10-30T08:19:59.407Z,100827.81
2022-10-30T08:26:45.185Z,100831.81
2022-10-30T08:33:33.951Z,100830.13
2022-10-30T08:40:39.288Z,100825.63
2022-10-30T08:47:25.996Z,100829.25
2022-10-30T08:54:15.451Z,100823.25
2022-10-30T09:01:03.785Z,100825.34
2022-10-30T09:08:11.916Z,100826.44
2022-10-30T09:15:20.587Z,100825.50
2022-10-30T09:22:12.749Z,100817.19
2022-10-30T09:29:00.536Z,100808.47
2022-10-30T09:36:08.324Z,100790.69
2022-10-30T09:42:54.738Z,100801.22
2022-10-30T09:49:59.219Z,100785.31
2022-10-30T09:56:53.551Z,100732.66
2022-10-30T10:03:58.438Z,100782.66
2022-10-30T10:11:08.903Z,100794.81
2022-10-30T10:17:58.913Z,100767.47
2022-10-30T10:24:47.972Z,100797.91
2022-10-30T10:31:46.223Z,100759.72
2022-10-30T10:38:51.338Z,100787.09
2022-10-30T10:45:50.018Z,100740.13
2022-10-30T10:52:42.838Z,100751.09
2022-10-30T10:59:39.368Z,100777.97
2022-10-30T11:06:29.074Z,100751.06
2022-10-30T11:13:17.255Z,100762.09
2022-10-30T11:20:20.407Z,100755.06
2022-10-30T11:27:28.405Z,100763.47
2022-10-30T11:34:28.605Z,100691.81
2022-10-30T11:41:18.040Z,100756.47
2022-10-30T11:48:08.059Z,100747.84
2022-10-30T11:55:01.941Z,100743.22
2022-10-30T12:02:03.691Z,100744.78
2022-10-30T12:09:03.959Z,100738.06
2022-10-30T12:15:51.759Z,100736.84
2022-10-30T12:22:41.316Z,100725.69
2022-10-30T12:30:02.576Z,100642.75
2022-10-30T12:36:51.020Z,100711.59
2022-10-30T12:43:39.747Z,100708.13
2022-10-30T12:50:30.754Z,100702.69
2022-10-30T12:57:19.979Z,100696.34
2022-10-30T13:04:17.726Z,100692.09
2022-10-30T13:11:12.891Z,100694.69
2022-10-30T13:18:02.382Z,100674.72
2022-10-30T13:25:03.802Z,100663.13
2022-10-30T13:32:10.820Z,100673.59
2022-10-30T13:39:03.423Z,100680.53
2022-10-30T13:46:14.810Z,100670.53
2022-10-30T13:53:05.269Z,100656.22
2022-10-30T14:00:04.392Z,100659.44
2022-10-30T14:07:17.832Z,100668.28
2022-10-30T14:14:14.268Z,100669.31
2022-10-30T14:21:01.075Z,100676.81
2022-10-30T14:27:59.588Z,100680.75
2022-10-30T14:34:46.261Z,100665.91
2022-10-30T14:41:52.131Z,100691.16
2022-10-30T14:48:55.131Z,100685.81
2022-10-30T14:55:59.055Z,100670.06
2022-10-30T15:02:57.427Z,100677.84
2022-10-30T15:10:04.852Z,100657.84
2022-10-30T15:16:54.916Z,100675.69
2022-10-30T15:23:41.077Z,100674.97
2022-10-30T15:30:30.691Z,100674.59
2022-10-30T15:37:16.780Z,100653.56
2022-10-30T15:44:02.713Z,100676.13
2022-10-30T15:51:03.088Z,100668.00
2022-10-30T15:58:07.898Z,100683.63
2022-10-30T16:04:53.757Z,100675.41
2022-10-30T16:11:41.896Z,100685.38
2022-10-30T16:18:30.635Z,100692.56
2022-10-30T16:25:19.352Z,100695.50
2022-10-30T16:32:10.962Z,100703.78
2022-10-30T16:38:58.187Z,100715.63
2022-10-30T16:45:52.703Z,100711.84
2022-10-30T16:52:40.737Z,100726.53
2022-10-30T16:59:35.669Z,100737.25
2022-10-30T17:06:31.206Z,100729.50
2022-10-30T17:13:38.616Z,100748.22
2022-10-30T17:20:31.352Z,100738.78
2022-10-30T17:27:47.106Z,100732.66
2022-10-30T17:34:41.012Z,100762.78
2022-10-30T17:41:26.686Z,100771.78
2022-10-30T17:48:18.383Z,100768.66
2022-10-30T17:55:24.998Z,100784.16
2022-10-30T18:02:16.953Z,100789.69
2022-10-30T18:09:02.441Z,100807.31
2022-10-30T18:15:56.199Z,100766.31
2022-10-30T18:22:41.590Z,100801.88
2022-10-30T18:29:26.944Z,100825.84
2022-10-30T18:36:18.904Z,100828.22
2022-10-30T18:43:05.199Z,100840.53
2022-10-30T18:49:50.381Z,100844.06
2022-10-30T18:56:38.405Z,100830.81
2022-10-30T19:03:23.787Z,100841.91
2022-10-30T19:10:11.043Z,100805.78
2022-10-30T19:16:59.023Z,100847.09
2022-10-30T19:23:44.521Z,100841.16
2022-10-30T19:30:29.927Z,100836.44
2022-10-30T19:37:17.873Z,100836.16
2022-10-30T19:44:03.231Z,100850.53
2022-10-30T19:50:49.971Z,100863.56
2022-10-30T19:57:37.937Z,100855.78
2022-10-30T20:04:23.291Z,100862.97
2022-10-30T20:11:09.122Z,100879.59
2022-10-30T20:17:58.150Z,100879.22
2022-10-30T20:24:43.612Z,100880.53
2022-10-30T20:31:29.028Z,100895.97
2022-10-30T20:38:21.591Z,100893.25
2022-10-30T20:45:08.871Z,100883.25
2022-10-30T20:51:54.361Z,100889.78
2022-10-30T20:58:42.677Z,100908.13
2022-10-30T21:05:43.147Z,100899.28
2022-10-30T21:12:29.815Z,100895.59
2022-10-30T21:19:18.358Z,100909.84
2022-10-30T21:26:04.620Z,100922.88
2022-10-30T21:32:49.794Z,100918.44
2022-10-30T21:39:37.902Z,100942.50
2022-10-30T21:46:24.819Z,100915.91
2022-10-30T21:53:10.211Z,100921.47
2022-10-30T22:00:01.506Z,100914.50
2022-10-30T22:06:52.752Z,100884.69
2022-10-30T22:13:39.419Z,100908.78
2022-10-30T22:20:28.041Z,100909.16
2022-10-30T22:27:13.606Z,100899.84
2022-10-30T22:33:59.680Z,100888.31
2022-10-30T22:40:47.648Z,100890.41
2022-10-30T22:47:33.075Z,100887.22
2022-10-30T22:54:18.482Z,100896.94
2022-10-30T23:01:16.204Z,100906.38
2022-10-30T23:08:01.610Z,100896.63
2022-10-30T23:14:46.957Z,100891.75
2022-10-30T23:21:35.763Z,100902.41
2022-10-30T23:28:21.131Z,100902.69
2022-10-30T23:35:06.767Z,100901.88
2022-10-30T23:41:54.742Z,100907.78
2022-10-30T23:48:40.086Z,100920.38
2022-10-30T23:55:25.470Z,100925.94
